PWSweather.com
Personal Weather Stations
Station Observations
PERMAKAI
WaiukuNZ

WaiukuNZ

Lat: -37.22, Lon: 174.77

Elevation: 219.816

Station Type: WH3081

www.permakai.nz

High Low Average
Temperature 64.0°F17.8°C 48.6°F9.2°C 54.7°F12.6°C
Dew Point 52.2°F11.2°C 43.9°F6.6°C 47.8°F8.8°C
Winds 9.2 mph 14.8 kmh Calm Calm 2.0 mph S3.2 kmh S
Wind Gusts 11.4 mph18.3 kmh -- 3.0 mph4.8 kmh
Humidity 98% 57% 79%
Pressure 30.21 in1023.0 mb 30.14 in1020.7 mb -
Precipitation 0.00 in0.0 mm - -
Hour Temp Dew Point Humidity Winds Wind Gusts Pressure Precip Precip Rate Daily Precip Total
12:00 AM 48.6°F9.2°C 43.9°F6.6°C 84% Calm Calm -- 30.15 in1021.0 mb 0.00 in0.0 mm 0.00 in0.0 mm 0.00 in0.0 mm
12:30 AM 49.8°F9.9°C 45.2°F7.3°C 84% Calm Calm -- 30.15 in1021.0 mb 0.00 in0.0 mm 0.00 in0.0 mm 0.00 in0.0 mm
01:00 AM 49.1°F9.5°C 44.5°F6.9°C 84% Calm Calm -- 30.15 in1021.0 mb 0.00 in0.0 mm 0.00 in0.0 mm 0.00 in0.0 mm
01:30 AM 49.1°F9.5°C 45.1°F7.3°C 86% Calm Calm 0.7 mph1.1 kmh 30.15 in1021.0 mb 0.00 in0.0 mm 0.00 in0.0 mm 0.00 in0.0 mm
02:00 AM 49.5°F9.7°C 45.4°F7.4°C 86% 0.7 mph W1.1 kmh W 2.2 mph3.5 kmh 30.14 in1020.7 mb 0.00 in0.0 mm 0.00 in0.0 mm 0.00 in0.0 mm
02:30 AM 52.5°F11.4°C 47.2°F8.4°C 82% 5.4 mph SW8.7 kmh SW 6.9 mph11.1 kmh 30.15 in1021.0 mb 0.00 in0.0 mm 0.00 in0.0 mm 0.00 in0.0 mm
03:00 AM 53.1°F11.7°C 45.3°F7.4°C 75% 3.1 mph SW5.0 kmh SW 4.5 mph7.2 kmh 30.15 in1021.0 mb 0.00 in0.0 mm 0.00 in0.0 mm 0.00 in0.0 mm
03:30 AM 53.1°F11.7°C 45.0°F7.2°C 74% 1.6 mph SSW2.6 kmh SSW 3.1 mph5.0 kmh 30.14 in1020.7 mb 0.00 in0.0 mm 0.00 in0.0 mm 0.00 in0.0 mm
04:00 AM 52.0°F11.1°C 44.3°F6.8°C 75% 1.6 mph S2.6 kmh S 2.2 mph3.5 kmh 30.14 in1020.7 mb 0.00 in0.0 mm 0.00 in0.0 mm 0.00 in0.0 mm
04:30 AM 51.4°F10.8°C 44.8°F7.1°C 78% Calm Calm -- 30.14 in1020.7 mb 0.00 in0.0 mm 0.00 in0.0 mm 0.00 in0.0 mm
05:00 AM 51.4°F10.8°C 45.8°F7.7°C 81% 0.7 mph SE1.1 kmh SE 1.6 mph2.6 kmh 30.15 in1021.0 mb 0.00 in0.0 mm 0.00 in0.0 mm 0.00 in0.0 mm
05:30 AM 51.8°F11.0°C 45.5°F7.5°C 79% Calm Calm -- 30.15 in1021.0 mb 0.00 in0.0 mm 0.00 in0.0 mm 0.00 in0.0 mm
06:00 AM 50.5°F10.3°C 44.6°F7.0°C 80% Calm Calm 0.7 mph1.1 kmh 30.16 in1021.3 mb 0.00 in0.0 mm 0.00 in0.0 mm 0.00 in0.0 mm
06:30 AM 48.9°F9.4°C 44.6°F7.0°C 85% Calm Calm -- 30.17 in1021.7 mb 0.00 in0.0 mm 0.00 in0.0 mm 0.00 in0.0 mm
07:00 AM 49.3°F9.6°C 45.9°F7.7°C 88% Calm Calm 0.7 mph1.1 kmh 30.17 in1021.7 mb 0.00 in0.0 mm 0.00 in0.0 mm 0.00 in0.0 mm
07:30 AM 49.6°F9.8°C 47.1°F8.4°C 91% 0.7 mph E1.1 kmh E 1.6 mph2.6 kmh 30.18 in1022.0 mb 0.00 in0.0 mm 0.00 in0.0 mm 0.00 in0.0 mm
08:00 AM 50.2°F10.1°C 47.7°F8.7°C 91% 0.7 mph E1.1 kmh E 1.6 mph2.6 kmh 30.19 in1022.4 mb 0.00 in0.0 mm 0.00 in0.0 mm 0.00 in0.0 mm
08:30 AM 53.2°F11.8°C 50.1°F10.1°C 89% Calm Calm -- 30.20 in1022.7 mb 0.00 in0.0 mm 0.00 in0.0 mm 0.00 in0.0 mm
09:00 AM 56.5°F13.6°C 51.7°F10.9°C 84% Calm Calm -- 30.21 in1023.0 mb 0.00 in0.0 mm 0.00 in0.0 mm 0.00 in0.0 mm
09:30 AM 59.8°F15.4°C 52.2°F11.2°C 76% Calm Calm 0.7 mph1.1 kmh 30.21 in1023.0 mb 0.00 in0.0 mm 0.00 in0.0 mm 0.00 in0.0 mm
10:00 AM 60.6°F15.9°C 49.2°F9.6°C 66% 0.7 mph S1.1 kmh S 2.2 mph3.5 kmh 30.21 in1023.0 mb 0.00 in0.0 mm 0.00 in0.0 mm 0.00 in0.0 mm
10:30 AM 60.3°F15.7°C 50.0°F10.0°C 69% 3.1 mph SW5.0 kmh SW 4.5 mph7.2 kmh 30.20 in1022.7 mb 0.00 in0.0 mm 0.00 in0.0 mm 0.00 in0.0 mm
11:00 AM 61.3°F16.3°C 48.6°F9.2°C 63% 3.8 mph NW6.1 kmh NW 6.0 mph9.7 kmh 30.21 in1023.0 mb 0.00 in0.0 mm 0.00 in0.0 mm 0.00 in0.0 mm
11:30 AM 62.8°F17.1°C 47.8°F8.8°C 58% 3.8 mph SW6.1 kmh SW 4.5 mph7.2 kmh 30.20 in1022.7 mb 0.00 in0.0 mm 0.00 in0.0 mm 0.00 in0.0 mm
12:00 PM 60.8°F16.0°C 46.4°F8.0°C 59% 5.4 mph SW8.7 kmh SW 8.3 mph13.4 kmh 30.20 in1022.7 mb 0.00 in0.0 mm 0.00 in0.0 mm 0.00 in0.0 mm
12:30 PM 62.6°F17.0°C 48.5°F9.2°C 60% 3.1 mph 5.0 kmh 5.4 mph8.7 kmh 30.18 in1022.0 mb 0.00 in0.0 mm 0.00 in0.0 mm 0.00 in0.0 mm
01:00 PM 60.4°F15.8°C 48.6°F9.2°C 65% 6.0 mph SW9.7 kmh SW 8.3 mph13.4 kmh 30.18 in1022.0 mb 0.00 in0.0 mm 0.00 in0.0 mm 0.00 in0.0 mm
01:30 PM 59.4°F15.2°C 48.4°F9.1°C 67% 2.2 mph E3.5 kmh E 5.4 mph8.7 kmh 30.17 in1021.7 mb 0.00 in0.0 mm 0.00 in0.0 mm 0.00 in0.0 mm
02:00 PM 64.0°F17.8°C 50.8°F10.4°C 62% 3.1 mph SW5.0 kmh SW 6.0 mph9.7 kmh 30.16 in1021.3 mb 0.00 in0.0 mm 0.00 in0.0 mm 0.00 in0.0 mm
02:30 PM 60.8°F16.0°C 48.5°F9.2°C 64% 6.9 mph NW11.1 kmh NW 9.8 mph15.8 kmh 30.16 in1021.3 mb 0.00 in0.0 mm 0.00 in0.0 mm 0.00 in0.0 mm
03:00 PM 62.8°F17.1°C 47.3°F8.5°C 57% 9.2 mph S14.8 kmh S 11.4 mph18.3 kmh 30.15 in1021.0 mb 0.00 in0.0 mm 0.00 in0.0 mm 0.00 in0.0 mm
03:30 PM 60.6°F15.9°C 48.0°F8.9°C 63% 5.4 mph W8.7 kmh W 7.6 mph12.2 kmh 30.15 in1021.0 mb 0.00 in0.0 mm 0.00 in0.0 mm 0.00 in0.0 mm
04:00 PM 61.7°F16.5°C 48.1°F8.9°C 61% 4.5 mph S7.2 kmh S 7.6 mph12.2 kmh 30.14 in1020.7 mb 0.00 in0.0 mm 0.00 in0.0 mm 0.00 in0.0 mm
04:30 PM 60.4°F15.8°C 48.2°F9.0°C 64% 5.4 mph SW8.7 kmh SW 7.6 mph12.2 kmh 30.15 in1021.0 mb 0.00 in0.0 mm 0.00 in0.0 mm 0.00 in0.0 mm
05:00 PM 60.3°F15.7°C 50.8°F10.4°C 71% 3.1 mph 5.0 kmh 6.0 mph9.7 kmh 30.14 in1020.7 mb 0.00 in0.0 mm 0.00 in0.0 mm 0.00 in0.0 mm
05:30 PM 59.4°F15.2°C 49.6°F9.8°C 70% 1.6 mph ESE2.6 kmh ESE 5.4 mph8.7 kmh 30.15 in1021.0 mb 0.00 in0.0 mm 0.00 in0.0 mm 0.00 in0.0 mm
06:00 PM 55.8°F13.2°C 49.0°F9.4°C 78% 0.7 mph SSW1.1 kmh SSW 2.2 mph3.5 kmh 30.16 in1021.3 mb 0.00 in0.0 mm 0.00 in0.0 mm 0.00 in0.0 mm
06:30 PM 54.0°F12.2°C 49.6°F9.8°C 85% 0.7 mph SW1.1 kmh SW 1.6 mph2.6 kmh 30.16 in1021.3 mb 0.00 in0.0 mm 0.00 in0.0 mm 0.00 in0.0 mm
07:00 PM 53.1°F11.7°C 49.9°F9.9°C 89% Calm Calm 0.7 mph1.1 kmh 30.17 in1021.7 mb 0.00 in0.0 mm 0.00 in0.0 mm 0.00 in0.0 mm
07:30 PM 50.7°F10.4°C 48.2°F9.0°C 91% Calm Calm 0.7 mph1.1 kmh 30.18 in1022.0 mb 0.00 in0.0 mm 0.00 in0.0 mm 0.00 in0.0 mm
08:00 PM 50.9°F10.5°C 48.9°F9.4°C 93% Calm Calm 0.7 mph1.1 kmh 30.19 in1022.4 mb 0.00 in0.0 mm 0.00 in0.0 mm 0.00 in0.0 mm
08:30 PM 50.5°F10.3°C 48.9°F9.4°C 94% Calm Calm -- 30.19 in1022.4 mb 0.00 in0.0 mm 0.00 in0.0 mm 0.00 in0.0 mm
09:00 PM 50.9°F10.5°C 49.5°F9.7°C 95% Calm Calm 0.7 mph1.1 kmh 30.20 in1022.7 mb 0.00 in0.0 mm 0.00 in0.0 mm 0.00 in0.0 mm
09:30 PM 50.9°F10.5°C 49.8°F9.9°C 96% Calm Calm 1.6 mph2.6 kmh 30.21 in1023.0 mb 0.00 in0.0 mm 0.00 in0.0 mm 0.00 in0.0 mm
10:00 PM 50.5°F10.3°C 49.7°F9.8°C 97% Calm Calm 0.7 mph1.1 kmh 30.20 in1022.7 mb 0.00 in0.0 mm 0.00 in0.0 mm 0.00 in0.0 mm
10:30 PM 50.7°F10.4°C 49.9°F9.9°C 97% Calm Calm 0.7 mph1.1 kmh 30.20 in1022.7 mb 0.00 in0.0 mm 0.00 in0.0 mm 0.00 in0.0 mm
11:00 PM 50.4°F10.2°C 49.5°F9.7°C 97% Calm Calm 0.7 mph1.1 kmh 30.20 in1022.7 mb 0.00 in0.0 mm 0.00 in0.0 mm 0.00 in0.0 mm
11:30 PM 49.6°F9.8°C 49.1°F9.5°C 98% 0.7 mph E1.1 kmh E 1.6 mph2.6 kmh 30.21 in1023.0 mb 0.00 in0.0 mm 0.00 in0.0 mm 0.00 in0.0 mm